Terminal Aerodrome Forecast
Issued by NWS

Home | Current Version | Previous Version | Graphics & Text | Print | Product List | Glossary On
Versions: 1 2 3 4 5 6 7 8 9 10 11 12 13 14 15 16 17 18
000
FTUS43 KICT 311735
TAFCNU
TAF
KCNU 311735Z 3118/0118 02006KT P6SM SCT020 BKN035
      TEMPO 3118/3121 BKN020
     FM312100 04008KT P6SM SCT020 BKN035
     FM010900 08005KT 4SM BR SCT009 BKN012
     FM011500 08006KT P6SM BKN025=

USA.gov is the U.S. government's official web portal to all federal, state and local government web resources and services.